sensor_id;sensor_type;location;lat;lon;timestamp;P1;P2;P0
84648;PMS5003;76539;52.392;16.888;2024-03-23T00:55:09;34.5048013606098;23.722050935419237;8.62620034015245
84648;PMS5003;76539;52.392;16.888;2024-03-23T01:10:09;28.842304614216296;26.355899044025236;11.934746736917088
84648;PMS5003;76539;52.392;16.888;2024-03-23T01:25:09;35.50815306842458;29.27023428613378;11.995997658251548
84648;PMS5003;76539;52.392;16.888;2024-03-23T01:40:09;30.21526847427311;18.038966253297378;7.666560657651385
84648;PMS5003;76539;52.392;16.888;2024-03-23T01:55:09;22.38310501066313;19.63430264093257;7.853721056373028
84648;PMS5003;76539;52.392;16.888;2024-03-23T02:10:09;35.812426729921086;23.603644890175264;10.173984866454855
84648;PMS5003;76539;52.392;16.888;2024-03-23T02:25:09;11.723852105403228;8.489686007360957;2.829895335786986
84648;PMS5003;76539;52.392;16.888;2024-03-23T02:40:09;9.298227531871525;6.6030891168363;2.425624573531702
84648;PMS5003;76539;52.392;16.888;2024-03-23T02:55:09;9.972012135630331;7.411630641346868;2.964652256538747
84648;PMS5003;76539;52.392;16.888;2024-03-23T03:10:09;7.950658324353913;6.6030891168363;2.829895335786986
84648;PMS5003;76539;52.392;16.888;2024-03-23T03:25:09;7.6811444828503905;5.39027683007045;2.425624573531702
84648;PMS5003;76539;52.392;16.888;2024-03-23T03:40:09;8.489686007360957;4.851249147063404;2.0213538112764184
84648;PMS5003;76539;52.392;16.888;2024-03-23T03:55:09;7.276873720595106;6.064061433829256;2.15611073202818
84648;PMS5003;76539;52.392;16.888;2024-03-23T04:10:10;8.085415245105674;4.851249147063404;1.3475692075176124
84648;PMS5003;76539;52.392;16.888;2024-03-23T04:25:10;13.52646563529094;10.69534492092772;4.7185345239387
84648;PMS5003;76539;52.392;16.888;2024-03-23T04:40:10;9.202011467105427;9.202011467105427;1.4156940718623732
84648;PMS5003;76539;52.392;16.888;2024-03-23T04:55:09;14.497776422728231;11.045924893507225;4.142221835065209
84648;PMS5003;76539;52.392;16.888;2024-03-23T05:10:09;10.084964565401435;7.5637234240510764;1.2606205706751794
84648;PMS5003;76539;52.392;16.888;2024-03-23T05:25:09;14.53881514522281;11.234538975853988;3.30427616936882
84648;PMS5003;76539;52.392;16.888;2024-03-23T05:40:09;8.842581067150851;8.842581067150851;1.894838800103754
84648;PMS5003;76539;52.392;16.888;2024-03-23T05:55:09;11.811090961081515;7.8740606407210105;0.0
84648;PMS5003;76539;52.392;16.888;2024-03-23T06:10:09;14.493495016062148;8.564337964036724;1.9763856840084748
84648;PMS5003;76539;52.392;16.888;2024-03-23T06:25:09;12.843058204896247;7.063682012692936;1.2843058204896247
84648;PMS5003;76539;52.392;16.888;2024-03-23T06:40:09;7.133696285395771;7.133696285395771;1.9455535323806648
84648;PMS5003;76539;52.392;16.888;2024-03-23T06:55:09;8.408586630389244;8.408586630389244;3.2340717809189403
84648;PMS5003;76539;52.392;16.888;2024-03-23T07:10:09;10.504278443231131;7.414784783457269;3.7073923917286344
84648;PMS5003;76539;52.392;16.888;2024-03-23T07:25:09;13.185533022762392;10.409631333759783;4.857827955754566
84648;PMS5003;76539;52.392;16.888;2024-03-23T07:40:09;9.818561743281519;9.818561743281519;3.2728539144271727
84648;PMS5003;76539;52.392;16.888;2024-03-23T07:55:09;10.287380865785686;6.858253910523791;3.4291269552618955
84648;PMS5003;76539;52.392;16.888;2024-03-23T08:10:09;14.38236191043962;8.629417146263773;4.314708573131886
84648;PMS5003;76539;52.392;16.888;2024-03-23T08:25:09;16.391157264057384;12.665894249498887;5.215368220381895
84648;PMS5003;76539;52.392;16.888;2024-03-23T08:40:09;10.403883430337505;10.403883430337505;5.201941715168752
84648;PMS5003;76539;52.392;16.888;2024-03-23T08:55:09;13.980390987840773;13.980390987840773;5.436818717493634
84648;PMS5003;76539;52.392;16.888;2024-03-23T09:10:09;17.134925226434028;12.46176380104293;3.8943011878259153
84648;PMS5003;76539;52.392;16.888;2024-03-23T09:25:10;14.594486485235869;10.753832147015904;4.608785205863959
84648;PMS5003;76539;52.392;16.888;2024-03-23T09:40:10;14.901052058233985;14.901052058233985;4.470315617470195
84648;PMS5003;76539;52.392;16.888;2024-03-23T09:55:10;17.30100720935375;13.539918685581194;3.7610885237725538
84648;PMS5003;76539;52.392;16.888;2024-03-23T10:10:10;18.065626254946757;12.04375083663117;3.7636721364472407
84648;PMS5003;76539;52.392;16.888;2024-03-23T10:25:10;9.595032258975538;9.595032258975538;3.690397022682899
84648;PMS5003;76539;52.392;16.888;2024-03-23T10:40:09;9.447990192050238;9.447990192050238;3.633842381557784
84648;PMS5003;76539;52.392;16.888;2024-03-23T10:55:09;13.285429281658436;8.856952854438958;2.9523176181463193
84648;PMS5003;76539;52.392;16.888;2024-03-23T11:10:09;9.678593930043302;9.678593930043302;2.9780289015517853
84648;PMS5003;76539;52.392;16.888;2024-03-23T11:25:09;11.436849873992362;11.436849873992362;3.8122832913307874
84648;PMS5003;76539;52.392;16.888;2024-03-23T11:40:09;13.689269659343946;9.126179772895965;2.281544943223991
84648;PMS5003;76539;52.392;16.888;2024-03-23T11:55:09;10.931033128148648;10.931033128148648;3.903940402910232
84648;PMS5003;76539;52.392;16.888;2024-03-23T12:10:09;23.71762834288667;18.362034846105807;9.181017423052904
84648;PMS5003;76539;52.392;16.888;2024-03-23T12:25:09;16.5827710458823;12.813959444545414;5.2763362418716415
84648;PMS5003;76539;52.392;16.888;2024-03-23T12:40:09;15.887585453304197;12.861378700293875;6.052413506020647
84648;PMS5003;76539;52.392;16.888;2024-03-23T12:55:09;17.354154090473592;17.354154090473592;6.790755948446189
84648;PMS5003;76539;52.392;16.888;2024-03-23T13:10:09;8.42890277224791;8.42890277224791;3.8313194419308685
84648;PMS5003;76539;52.392;16.888;2024-03-23T13:25:09;8.441768965750686;8.441768965750686;1.534867084681943
84648;PMS5003;76539;52.392;16.888;2024-03-23T13:40:09;3.997832745247773;3.997832745247773;1.5991330980991092
84648;PMS5003;76539;52.392;16.888;2024-03-23T13:55:09;10.024492694082946;5.397803758352356;0.7711148226217651
84648;PMS5003;76539;52.392;16.888;2024-03-23T14:10:09;3.9778473463251207;3.9778473463251207;0.7955694692650241
84648;PMS5003;76539;52.392;16.888;2024-03-23T14:25:09;3.8110768244602395;3.8110768244602395;0.0
84648;PMS5003;76539;52.392;16.888;2024-03-23T14:40:09;3.801352162931036;3.801352162931036;0.7602704325862072
84648;PMS5003;76539;52.392;16.888;2024-03-23T14:55:10;8.392318503395986;8.392318503395986;1.525876091526543
84648;PMS5003;76539;52.392;16.888;2024-03-23T15:10:10;4.457150327488509;4.457150327488509;1.4857167758295027
84648;PMS5003;76539;52.392;16.888;2024-03-23T15:25:10;6.08411984859731;6.08411984859731;2.281544943223991
84648;PMS5003;76539;52.392;16.888;2024-03-23T15:40:10;6.017741638036086;6.017741638036086;2.2566531142635324
84648;PMS5003;76539;52.392;16.888;2024-03-23T15:55:09;12.874153358003626;9.844940803179243;2.271909416118287
84648;PMS5003;76539;52.392;16.888;2024-03-23T16:10:09;7.631781427808204;7.631781427808204;2.2895344283424612
84648;PMS5003;76539;52.392;16.888;2024-03-23T16:25:09;5.4275886939322415;5.4275886939322415;0.7753698134188917
84648;PMS5003;76539;52.392;16.888;2024-03-23T16:40:09;9.924431970621248;5.343924907257595;1.5268356877878841
84648;PMS5003;76539;52.392;16.888;2024-03-23T16:55:09;11.415042647064583;8.371031274514028;0.7610028431376389
84648;PMS5003;76539;52.392;16.888;2024-03-23T17:10:09;4.686004498496397;4.686004498496397;1.562001499498799
84648;PMS5003;76539;52.392;16.888;2024-03-23T17:25:09;8.572198966428902;5.455035705909301;0.7792908151299002
84648;PMS5003;76539;52.392;16.888;2024-03-23T17:40:09;15.376497704147754;8.457073737281265;1.5376497704147754
84648;PMS5003;76539;52.392;16.888;2024-03-23T17:55:09;11.511503135114571;7.6743354234097145;3.069734169363886
84648;PMS5003;76539;52.392;16.888;2024-03-23T18:10:09;14.388759635415818;14.388759635415818;2.271909416118287
84648;PMS5003;76539;52.392;16.888;2024-03-23T18:25:09;30.170940784097994;28.662393744893095;18.1025644704588
84648;PMS5003;76539;52.392;16.888;2024-03-23T18:40:09;12.014682934922465;12.014682934922465;4.505506100595925
84648;PMS5003;76539;52.392;16.888;2024-03-23T18:55:09;13.985205262547327;13.985205262547327;7.3606343487091195
84648;PMS5003;76539;52.392;16.888;2024-03-23T19:10:09;22.596590250906324;17.494134387798447;7.289222661582686
84648;PMS5003;76539;52.392;16.888;2024-03-23T19:25:09;27.756738229309676;18.991452472685566;10.22616671606146
84648;PMS5003;76539;52.392;16.888;2024-03-23T19:40:09;27.425198966435186;25.981767441885964;10.104020671844543
84648;PMS5003;76539;52.392;16.888;2024-03-23T19:55:09;32.817715442661445;24.256572283706284;10.701428948693948
84648;PMS5003;76539;52.392;16.888;2024-03-23T20:10:09;22.404852484840603;22.404852484840603;12.60272952272284
84648;PMS5003;76539;52.392;16.888;2024-03-23T20:25:09;29.958656415387118;25.08166583613805;9.057268218605408
84648;PMS5003;76539;52.392;16.888;2024-03-23T20:40:09;34.835646994636186;27.868517595708948;11.844119978176302
84648;PMS5003;76539;52.392;16.888;2024-03-23T20:55:09;30.937337293276364;26.812358987506183;13.062431301605576
84648;PMS5003;76539;52.392;16.888;2024-03-23T21:10:09;51.96461622935005;40.4919087501429;19.57108922923573
84648;PMS5003;76539;52.392;16.888;2024-03-23T21:25:10;34.41738167698815;31.108018054200826;17.870563563051537
84648;PMS5003;76539;52.392;16.888;2024-03-23T21:40:10;27.23962591581829;27.23962591581829;13.287622397960142
84648;PMS5003;76539;52.392;16.888;2024-03-23T21:55:10;33.3420379383057;27.340471109410675;12.669974416556167
84648;PMS5003;76539;52.392;16.888;2024-03-23T22:10:09;28.100154234533743;20.258250727222;9.148887425197032
84648;PMS5003;76539;52.392;16.888;2024-03-23T22:25:09;34.44367711801654;31.131785087438026;19.20897377735538
84648;PMS5003;76539;52.392;16.888;2024-03-23T22:40:09;19.267052477042206;19.267052477042206;8.636954558674091
84648;PMS5003;76539;52.392;16.888;2024-03-23T22:55:09;21.837370388613518;14.33077431752762;6.141760421797552
84648;PMS5003;76539;52.392;16.888;2024-03-23T23:10:09;25.961121037955593;17.541297998618642;5.613215359557966
84648;PMS5003;76539;52.392;16.888;2024-03-23T23:25:09;23.474958517208083;18.495421862042733;3.5568118965466793
84648;PMS5003;76539;52.392;16.888;2024-03-23T23:40:09;26.281741564458308;12.075394772859221;6.392856056219588
84648;PMS5003;76539;52.392;16.888;2024-03-23T23:55:09;19.92785037152287;12.099052011281742;5.69367153472082
